createdAt,value
2023-05-22T00:00:24.654Z,17.70
2023-05-22T00:02:52.505Z,17.48
2023-05-22T00:05:20.461Z,18.80
2023-05-22T00:07:47.022Z,19.52
2023-05-22T00:10:13.533Z,17.05
2023-05-22T00:12:40.176Z,15.00
2023-05-22T00:15:07.665Z,18.15
2023-05-22T00:17:34.502Z,14.60
2023-05-22T00:20:04.418Z,19.83
2023-05-22T00:22:31.618Z,17.30
2023-05-22T00:24:58.245Z,15.10
2023-05-22T00:27:24.856Z,17.02
2023-05-22T00:29:51.388Z,15.32
2023-05-22T00:32:17.830Z,20.70
2023-05-22T00:34:44.401Z,20.50
2023-05-22T00:37:10.906Z,25.50
2023-05-22T00:39:37.340Z,19.85
2023-05-22T00:42:04.157Z,16.42
2023-05-22T00:44:30.792Z,16.77
2023-05-22T00:46:57.374Z,15.98
2023-05-22T00:49:23.914Z,15.57
2023-05-22T00:51:50.464Z,15.27
2023-05-22T00:54:17.316Z,16.77
2023-05-22T00:56:44.056Z,16.42
2023-05-22T00:59:10.778Z,15.95
2023-05-22T01:01:41.982Z,14.38
2023-05-22T01:04:11.500Z,16.92
2023-05-22T01:06:38.943Z,16.63
2023-05-22T01:09:05.558Z,14.18
2023-05-22T01:11:41.086Z,14.60
2023-05-22T01:14:23.905Z,15.75
2023-05-22T01:17:08.809Z,15.85
2023-05-22T01:20:07.582Z,18.08
2023-05-22T01:22:43.350Z,15.43
2023-05-22T01:25:34.910Z,15.98
2023-05-22T01:28:11.917Z,15.63
2023-05-22T01:30:49.231Z,16.27
2023-05-22T01:33:18.027Z,15.27
2023-05-22T01:35:48.619Z,13.88
2023-05-22T01:38:16.768Z,13.18
2023-05-22T01:40:45.742Z,14.90
2023-05-22T01:43:14.693Z,16.20
2023-05-22T01:45:41.355Z,13.27
2023-05-22T01:48:07.948Z,17.08
2023-05-22T01:50:34.711Z,16.13
2023-05-22T01:53:13.487Z,15.27
2023-05-22T01:55:52.038Z,12.20
2023-05-22T01:58:41.342Z,12.70
2023-05-22T02:01:12.000Z,11.77
2023-05-22T02:03:40.110Z,14.30
2023-05-22T02:06:08.945Z,13.70
2023-05-22T02:08:40.462Z,13.27
2023-05-22T02:11:09.688Z,12.98
2023-05-22T02:13:37.473Z,15.05
2023-05-22T02:16:04.625Z,13.73
2023-05-22T02:18:31.498Z,15.15
2023-05-22T02:20:58.366Z,12.93
2023-05-22T02:23:25.637Z,14.80
2023-05-22T02:25:52.269Z,12.13
2023-05-22T02:28:18.703Z,10.68
2023-05-22T02:30:45.137Z,12.55
2023-05-22T02:33:11.697Z,13.82
2023-05-22T02:35:38.215Z,18.05
2023-05-22T02:38:04.853Z,11.93
2023-05-22T02:40:31.325Z,11.25
2023-05-22T02:42:57.755Z,11.80
2023-05-22T02:45:24.247Z,11.52
2023-05-22T02:47:50.753Z,13.93
2023-05-22T02:50:17.455Z,16.10
2023-05-22T02:52:45.169Z,17.25
2023-05-22T02:55:12.001Z,18.55
2023-05-22T02:57:38.465Z,21.05
2023-05-22T03:00:11.389Z,18.65
2023-05-22T03:02:38.968Z,19.00
2023-05-22T03:05:06.156Z,17.20
2023-05-22T03:07:32.654Z,20.55
2023-05-22T03:09:59.132Z,20.75
2023-05-22T03:12:25.928Z,18.40
2023-05-22T03:14:52.383Z,19.75
2023-05-22T03:17:18.850Z,22.42
2023-05-22T03:19:45.283Z,19.20
2023-05-22T03:22:11.725Z,15.13
2023-05-22T03:24:38.178Z,20.27
2023-05-22T03:27:04.933Z,21.55
2023-05-22T03:29:31.636Z,15.40
2023-05-22T03:31:58.868Z,16.45
2023-05-22T03:34:26.988Z,19.90
2023-05-22T03:36:53.474Z,24.80
2023-05-22T03:39:19.897Z,21.25
2023-05-22T03:41:46.334Z,18.50
2023-05-22T03:44:12.763Z,20.90
2023-05-22T03:46:39.217Z,21.80
2023-05-22T03:49:05.706Z,22.15
2023-05-22T03:51:32.421Z,22.77
2023-05-22T03:53:58.896Z,22.15
2023-05-22T03:56:25.774Z,30.42
2023-05-22T03:58:52.350Z,21.23
2023-05-22T04:01:18.866Z,33.60
2023-05-22T04:03:45.444Z,38.97
2023-05-22T04:06:13.723Z,33.78
2023-05-22T04:08:40.446Z,32.53
2023-05-22T04:11:06.977Z,40.20
2023-05-22T04:13:33.475Z,36.80
2023-05-22T04:16:01.944Z,40.42
2023-05-22T04:18:28.771Z,40.00
2023-05-22T04:20:55.196Z,42.08
2023-05-22T04:23:21.712Z,44.05
2023-05-22T04:25:48.308Z,40.78
2023-05-22T04:28:17.517Z,46.25
2023-05-22T04:30:44.552Z,39.13
2023-05-22T04:33:11.296Z,34.25
2023-05-22T04:35:37.834Z,45.72
2023-05-22T04:38:06.491Z,40.08
2023-05-22T04:40:34.256Z,48.80
2023-05-22T04:43:01.478Z,57.78
2023-05-22T04:45:28.861Z,55.97
2023-05-22T04:47:56.210Z,53.42
2023-05-22T04:50:23.879Z,54.63
2023-05-22T04:52:50.502Z,60.00
2023-05-22T04:55:17.227Z,44.05
2023-05-22T04:57:47.218Z,60.33
2023-05-22T05:00:15.934Z,59.90
2023-05-22T05:02:42.879Z,58.85
2023-05-22T05:05:09.560Z,57.90
2023-05-22T05:07:39.800Z,61.58
2023-05-22T05:10:07.260Z,45.25
2023-05-22T05:12:34.059Z,64.53
2023-05-22T05:15:00.757Z,57.60
2023-05-22T05:17:27.384Z,52.72
2023-05-22T05:19:54.226Z,64.32
2023-05-22T05:22:20.660Z,57.40
2023-05-22T05:24:47.279Z,48.42
2023-05-22T05:27:14.087Z,63.67
2023-05-22T05:29:41.243Z,57.22
2023-05-22T05:32:08.438Z,66.22
2023-05-22T05:34:35.037Z,68.28
2023-05-22T05:37:02.739Z,58.22
2023-05-22T05:39:29.552Z,72.47
2023-05-22T05:41:56.236Z,65.90
2023-05-22T05:44:22.742Z,56.95
2023-05-22T05:46:49.271Z,65.55
2023-05-22T05:49:15.745Z,62.92
2023-05-22T05:51:42.193Z,57.20
2023-05-22T05:54:08.658Z,65.55
2023-05-22T05:56:35.727Z,54.50
2023-05-22T05:59:02.155Z,63.45
2023-05-22T06:01:32.898Z,67.05
2023-05-22T06:04:03.172Z,65.63
2023-05-22T06:09:05.590Z,57.33
2023-05-22T06:11:35.045Z,66.55
2023-05-22T06:14:03.202Z,78.70
2023-05-22T06:16:30.054Z,78.68
2023-05-22T06:18:58.754Z,72.03
2023-05-22T06:21:25.327Z,72.40
2023-05-22T06:23:52.041Z,71.50
2023-05-22T06:26:18.718Z,69.57
2023-05-22T06:28:45.539Z,66.13
2023-05-22T06:31:12.075Z,63.22
2023-05-22T06:33:40.590Z,74.28
2023-05-22T06:36:08.832Z,69.13
2023-05-22T06:38:35.462Z,71.07
2023-05-22T06:41:02.044Z,69.95
2023-05-22T06:43:28.478Z,59.60
2023-05-22T06:45:55.033Z,47.83
2023-05-22T06:48:21.792Z,81.32
2023-05-22T06:50:48.270Z,86.80
2023-05-22T06:53:14.773Z,68.47
2023-05-22T06:55:41.927Z,91.97
2023-05-22T06:58:08.622Z,81.82
2023-05-22T07:00:35.240Z,77.00
2023-05-22T07:03:02.145Z,82.55
2023-05-22T07:05:28.757Z,87.25
2023-05-22T07:07:55.555Z,83.07
2023-05-22T07:10:22.143Z,70.45
2023-05-22T07:12:48.633Z,79.03
2023-05-22T07:15:15.169Z,84.60
2023-05-22T07:17:41.836Z,78.50
2023-05-22T07:20:09.661Z,74.78
2023-05-22T07:22:36.126Z,75.68
2023-05-22T07:25:02.676Z,77.57
2023-05-22T07:27:29.198Z,70.82
2023-05-22T07:29:55.728Z,72.53
2023-05-22T07:32:22.305Z,67.40
2023-05-22T07:34:48.838Z,63.92
2023-05-22T07:37:15.350Z,66.05
2023-05-22T07:39:42.950Z,49.22
2023-05-22T07:42:09.535Z,63.50
2023-05-22T07:44:36.240Z,62.72
2023-05-22T07:47:02.757Z,67.07
2023-05-22T07:49:29.232Z,65.45
2023-05-22T07:51:55.897Z,75.10
2023-05-22T07:54:22.549Z,59.53
2023-05-22T07:56:49.571Z,60.08
2023-05-22T07:59:18.571Z,56.80
2023-05-22T08:01:45.370Z,43.35
2023-05-22T08:04:12.042Z,62.05
2023-05-22T08:06:39.562Z,58.55
2023-05-22T08:09:06.151Z,53.47
2023-05-22T08:11:33.985Z,55.78
2023-05-22T08:14:00.449Z,49.92
2023-05-22T08:16:26.996Z,53.15
2023-05-22T08:18:53.509Z,52.10
2023-05-22T08:21:20.063Z,44.20
2023-05-22T08:23:46.603Z,49.10
2023-05-22T08:26:13.084Z,51.35
2023-05-22T08:28:43.981Z,53.78
2023-05-22T08:31:11.721Z,50.05
2023-05-22T08:33:38.455Z,42.17
2023-05-22T08:36:05.449Z,54.67
2023-05-22T08:38:31.947Z,60.78
2023-05-22T08:40:58.527Z,58.88
2023-05-22T08:43:25.069Z,55.35
2023-05-22T08:45:57.820Z,54.50
2023-05-22T08:48:24.727Z,50.80
2023-05-22T08:50:57.324Z,56.55
2023-05-22T08:53:25.831Z,47.22
2023-05-22T08:55:53.648Z,61.75
2023-05-22T08:58:21.054Z,55.83
2023-05-22T09:00:48.122Z,52.72
2023-05-22T09:03:15.799Z,55.28
2023-05-22T09:05:42.465Z,55.30
2023-05-22T09:08:19.767Z,46.03
2023-05-22T09:10:47.254Z,51.15
2023-05-22T09:13:33.043Z,48.70
2023-05-22T09:16:07.480Z,52.63
2023-05-22T09:18:33.974Z,47.63
2023-05-22T09:21:02.064Z,53.13
2023-05-22T09:23:29.667Z,51.53
2023-05-22T09:25:57.435Z,55.75
2023-05-22T09:28:24.556Z,58.08
2023-05-22T09:30:51.883Z,48.35
2023-05-22T09:33:19.272Z,52.75
2023-05-22T09:35:51.687Z,55.83
2023-05-22T09:38:18.290Z,52.05
2023-05-22T09:40:44.777Z,56.72
2023-05-22T09:43:12.733Z,56.47
2023-05-22T09:45:39.457Z,58.17
2023-05-22T09:48:07.084Z,47.53
2023-05-22T09:50:33.777Z,52.90
2023-05-22T09:53:04.898Z,46.13
2023-05-22T09:55:32.219Z,48.55
2023-05-22T09:58:03.159Z,54.38
2023-05-22T10:00:30.577Z,50.97
2023-05-22T10:03:08.987Z,50.75
2023-05-22T10:05:38.018Z,48.45
2023-05-22T10:08:15.057Z,54.83
2023-05-22T10:10:43.412Z,56.20
2023-05-22T10:13:11.003Z,57.30
2023-05-22T10:15:38.386Z,48.92
2023-05-22T10:18:05.809Z,51.95
2023-05-22T10:20:32.903Z,48.50
2023-05-22T10:23:02.660Z,60.15
2023-05-22T10:25:30.265Z,53.53
2023-05-22T10:27:58.364Z,63.20
2023-05-22T10:30:34.042Z,69.90
2023-05-22T10:33:12.270Z,61.05
2023-05-22T10:35:44.427Z,62.20
2023-05-22T10:39:08.131Z,68.78
2023-05-22T10:41:35.118Z,58.88
2023-05-22T10:44:02.975Z,56.35
2023-05-22T10:46:34.401Z,67.22
2023-05-22T10:49:00.969Z,55.47
2023-05-22T10:51:27.993Z,58.03
2023-05-22T10:54:05.612Z,60.70
2023-05-22T10:56:35.155Z,65.05
2023-05-22T10:59:05.272Z,59.97
2023-05-22T11:01:36.133Z,52.97
2023-05-22T11:04:06.804Z,61.03
2023-05-22T11:06:33.306Z,53.33
2023-05-22T11:09:00.023Z,53.63
2023-05-22T11:11:27.324Z,63.08
2023-05-22T11:14:03.185Z,57.75
2023-05-22T11:16:33.747Z,56.10
2023-05-22T11:19:21.162Z,60.08
2023-05-22T11:21:49.568Z,56.22
2023-05-22T11:24:17.935Z,54.95
2023-05-22T11:26:44.905Z,53.72
2023-05-22T11:29:11.575Z,61.00
2023-05-22T11:31:38.661Z,45.63
2023-05-22T11:34:05.629Z,53.00
2023-05-22T11:36:32.361Z,56.45
2023-05-22T11:39:00.067Z,54.70
2023-05-22T11:41:34.164Z,46.85
2023-05-22T11:44:01.580Z,51.42
2023-05-22T11:46:30.163Z,54.80
2023-05-22T11:48:56.946Z,59.13
2023-05-22T11:51:23.502Z,61.38
2023-05-22T11:53:49.966Z,56.97
2023-05-22T11:56:21.733Z,60.92
2023-05-22T11:58:51.893Z,57.47
2023-05-22T12:01:18.501Z,50.40
2023-05-22T12:03:45.111Z,49.75
2023-05-22T12:06:11.974Z,58.63
2023-05-22T12:08:39.308Z,57.65
2023-05-22T12:11:07.039Z,60.08
2023-05-22T12:13:33.535Z,57.05
2023-05-22T12:16:00.948Z,61.72
2023-05-22T12:18:35.378Z,59.47
2023-05-22T12:21:01.926Z,57.38
2023-05-22T12:23:30.017Z,58.35
2023-05-22T12:26:08.610Z,55.28
2023-05-22T12:28:35.334Z,63.72
2023-05-22T12:31:01.804Z,60.05
2023-05-22T12:33:29.594Z,58.13
2023-05-22T12:36:00.328Z,49.30
2023-05-22T12:38:28.051Z,60.80
2023-05-22T12:40:58.273Z,66.57
2023-05-22T12:43:25.418Z,66.20
2023-05-22T12:45:52.001Z,61.72
2023-05-22T12:48:19.352Z,70.95
2023-05-22T12:50:49.219Z,63.17
2023-05-22T12:53:15.845Z,66.35
2023-05-22T12:55:43.311Z,59.97
2023-05-22T12:58:09.800Z,65.80
2023-05-22T13:00:36.334Z,58.65
2023-05-22T13:03:03.781Z,60.92
2023-05-22T13:05:30.457Z,66.85
2023-05-22T13:07:57.052Z,65.55
2023-05-22T13:10:23.525Z,65.95
2023-05-22T13:12:51.226Z,47.25
2023-05-22T13:15:18.517Z,57.53
2023-05-22T13:17:45.702Z,64.78
2023-05-22T13:20:13.418Z,56.60
2023-05-22T13:22:41.237Z,63.03
2023-05-22T13:25:08.110Z,61.55
2023-05-22T13:27:34.613Z,56.70
2023-05-22T13:30:01.152Z,53.30
2023-05-22T13:32:27.701Z,57.28
2023-05-22T13:34:54.182Z,59.50
2023-05-22T13:37:20.903Z,63.72
2023-05-22T13:39:47.706Z,61.35
2023-05-22T13:42:14.434Z,61.22
2023-05-22T13:44:41.042Z,57.40
2023-05-22T13:47:07.735Z,61.47
2023-05-22T13:49:34.358Z,70.75
2023-05-22T13:52:00.838Z,51.70
2023-05-22T13:54:27.586Z,59.47
2023-05-22T13:56:54.203Z,64.07
2023-05-22T13:59:20.649Z,64.78
2023-05-22T14:01:47.082Z,54.20
2023-05-22T14:04:13.538Z,62.70
2023-05-22T14:06:40.077Z,63.67
2023-05-22T14:09:07.934Z,63.38
2023-05-22T14:11:34.556Z,60.25
2023-05-22T14:14:01.152Z,67.53
2023-05-22T14:16:27.688Z,65.07
2023-05-22T14:18:54.225Z,58.20
2023-05-22T14:21:20.730Z,57.90
2023-05-22T14:23:47.202Z,66.32
2023-05-22T14:26:14.601Z,62.90
2023-05-22T14:28:41.660Z,59.65
2023-05-22T14:31:08.143Z,64.40
2023-05-22T14:33:35.813Z,65.15
2023-05-22T14:36:02.688Z,67.85
2023-05-22T14:38:33.490Z,59.13
2023-05-22T14:41:01.062Z,63.05
2023-05-22T14:43:27.544Z,61.65
2023-05-22T14:45:55.822Z,67.50
2023-05-22T14:48:26.407Z,59.17
2023-05-22T14:50:56.375Z,59.53
2023-05-22T14:53:23.214Z,64.25
2023-05-22T14:55:50.070Z,63.45
2023-05-22T14:58:16.598Z,61.25
2023-05-22T15:00:43.074Z,56.70
2023-05-22T15:03:09.626Z,54.35
2023-05-22T15:05:36.321Z,62.72
2023-05-22T15:08:02.807Z,65.15
2023-05-22T15:10:29.333Z,57.92
2023-05-22T15:12:55.812Z,68.65
2023-05-22T15:15:22.452Z,63.55
2023-05-22T15:17:48.919Z,54.97
2023-05-22T15:20:15.509Z,55.50
2023-05-22T15:22:41.978Z,60.42
2023-05-22T15:25:12.266Z,53.85
2023-05-22T15:27:39.647Z,57.13
2023-05-22T15:30:09.510Z,54.15
2023-05-22T15:32:37.035Z,58.30
2023-05-22T15:35:05.411Z,57.85
2023-05-22T15:37:33.610Z,53.15
2023-05-22T15:40:01.401Z,54.13
2023-05-22T15:42:28.065Z,50.90
2023-05-22T15:44:54.576Z,52.10
2023-05-22T15:47:21.079Z,52.70
2023-05-22T15:49:47.767Z,55.75
2023-05-22T15:52:14.244Z,50.60
2023-05-22T15:54:40.804Z,54.22
2023-05-22T15:57:07.293Z,44.75
2023-05-22T15:59:33.824Z,50.90
2023-05-22T16:02:00.342Z,53.90
2023-05-22T16:04:26.801Z,48.05
2023-05-22T16:06:53.286Z,48.83
2023-05-22T16:09:19.812Z,53.63
2023-05-22T16:11:46.555Z,41.42
2023-05-22T16:14:13.341Z,48.90
2023-05-22T16:16:40.044Z,52.47
2023-05-22T16:19:06.720Z,53.72
2023-05-22T16:21:33.259Z,50.92
2023-05-22T16:23:59.769Z,45.55
2023-05-22T16:26:26.901Z,47.10
2023-05-22T16:28:53.410Z,45.58
2023-05-22T16:31:20.061Z,34.13
2023-05-22T16:33:46.582Z,45.60
2023-05-22T16:36:13.230Z,43.88
2023-05-22T16:38:39.795Z,36.25
2023-05-22T16:41:06.269Z,37.75
2023-05-22T16:43:32.727Z,45.95
2023-05-22T16:45:59.298Z,45.53
2023-05-22T16:48:25.754Z,44.25
2023-05-22T16:50:52.283Z,40.45
2023-05-22T16:53:18.789Z,39.20
2023-05-22T16:55:45.471Z,42.05
2023-05-22T16:58:12.604Z,40.80
2023-05-22T17:00:40.192Z,36.63
2023-05-22T17:03:08.188Z,35.65
2023-05-22T17:05:35.259Z,37.42
2023-05-22T17:08:01.801Z,31.17
2023-05-22T17:10:28.325Z,36.95
2023-05-22T17:12:54.933Z,30.90
2023-05-22T17:15:21.382Z,35.25
2023-05-22T17:17:47.865Z,35.40
2023-05-22T17:20:14.316Z,34.95
2023-05-22T17:22:42.393Z,38.50
2023-05-22T17:25:09.352Z,39.13
2023-05-22T17:27:36.834Z,34.50
2023-05-22T17:30:04.877Z,31.77
2023-05-22T17:32:31.570Z,27.95
2023-05-22T17:34:58.249Z,17.60
2023-05-22T17:37:24.726Z,19.25
2023-05-22T17:39:51.778Z,25.25
2023-05-22T17:42:18.365Z,15.15
2023-05-22T17:44:45.060Z,12.73
2023-05-22T17:47:13.243Z,16.38
2023-05-22T17:49:39.985Z,12.20
2023-05-22T17:52:08.479Z,13.10
2023-05-22T17:54:35.746Z,11.98
2023-05-22T17:57:04.104Z,18.05
2023-05-22T17:59:32.503Z,12.23
2023-05-22T18:01:59.138Z,10.75
2023-05-22T18:04:25.988Z,13.35
2023-05-22T18:06:52.529Z,11.10
2023-05-22T18:09:18.999Z,13.35
2023-05-22T18:11:45.664Z,11.25
2023-05-22T18:14:12.197Z,10.75
2023-05-22T18:16:38.719Z,11.45
2023-05-22T18:19:05.277Z,11.00
2023-05-22T18:21:32.275Z,11.25
2023-05-22T18:23:59.006Z,14.18
2023-05-22T18:26:26.686Z,13.13
2023-05-22T18:28:53.191Z,11.55
2023-05-22T18:31:19.982Z,12.15
2023-05-22T18:33:46.608Z,13.90
2023-05-22T18:36:13.809Z,15.55
2023-05-22T18:38:40.432Z,10.82
2023-05-22T18:41:07.256Z,16.30
2023-05-22T18:43:33.793Z,12.25
2023-05-22T18:46:00.328Z,15.70
2023-05-22T18:48:28.165Z,9.63
2023-05-22T18:50:57.358Z,10.80
2023-05-22T18:53:25.166Z,11.45
2023-05-22T18:55:53.670Z,12.40
2023-05-22T18:58:20.474Z,11.63
2023-05-22T19:00:47.031Z,14.52
2023-05-22T19:03:14.047Z,13.63
2023-05-22T19:05:40.691Z,12.18
2023-05-22T19:08:07.249Z,9.77
2023-05-22T19:10:33.742Z,12.43
2023-05-22T19:13:00.291Z,14.35
2023-05-22T19:15:26.815Z,11.57
2023-05-22T19:17:53.357Z,16.58
2023-05-22T19:20:19.857Z,12.05
2023-05-22T19:22:46.416Z,17.00
2023-05-22T19:25:12.925Z,12.05
2023-05-22T19:27:39.606Z,14.55
2023-05-22T19:30:07.198Z,10.90
2023-05-22T19:32:33.867Z,15.57
2023-05-22T19:35:00.490Z,10.07
2023-05-22T19:37:26.967Z,11.70
2023-05-22T19:39:54.219Z,13.85
2023-05-22T19:42:20.750Z,13.02
2023-05-22T19:44:47.233Z,11.77
2023-05-22T19:47:13.855Z,11.57
2023-05-22T19:49:40.502Z,13.13
2023-05-22T19:52:06.927Z,13.65
2023-05-22T19:54:34.685Z,11.65
2023-05-22T19:57:01.343Z,15.98
2023-05-22T19:59:27.805Z,11.95
2023-05-22T20:01:54.330Z,9.57
2023-05-22T20:04:21.480Z,12.40
2023-05-22T20:06:48.377Z,13.30
2023-05-22T20:09:15.008Z,11.68
2023-05-22T20:11:41.474Z,9.10
2023-05-22T20:14:08.258Z,8.27
2023-05-22T20:16:34.933Z,10.48
2023-05-22T20:19:02.504Z,11.02
2023-05-22T20:21:29.127Z,8.70
2023-05-22T20:23:55.636Z,10.43
2023-05-22T20:26:22.271Z,10.45
2023-05-22T20:28:48.707Z,14.35
2023-05-22T20:31:15.194Z,9.73
2023-05-22T20:33:41.698Z,9.98
2023-05-22T20:36:08.637Z,8.63
2023-05-22T20:38:35.146Z,11.70
2023-05-22T20:41:02.562Z,10.13
2023-05-22T20:43:30.736Z,10.50
2023-05-22T20:45:57.502Z,9.13
2023-05-22T20:48:24.073Z,9.30
2023-05-22T20:50:50.663Z,9.15
2023-05-22T20:53:17.560Z,9.80
2023-05-22T20:55:45.053Z,10.52
2023-05-22T20:58:11.585Z,10.02
2023-05-22T21:00:38.192Z,9.80
2023-05-22T21:03:04.811Z,7.50
2023-05-22T21:05:31.436Z,11.90
2023-05-22T21:07:57.914Z,10.75
2023-05-22T21:10:24.333Z,12.73
2023-05-22T21:12:50.850Z,12.48
2023-05-22T21:15:17.499Z,9.02
2023-05-22T21:17:44.143Z,9.32
2023-05-22T21:20:11.048Z,12.32
2023-05-22T21:22:37.531Z,10.65
2023-05-22T21:25:04.314Z,9.88
2023-05-22T21:27:30.765Z,12.43
2023-05-22T21:29:57.251Z,8.30
2023-05-22T21:32:23.751Z,9.60
2023-05-22T21:34:50.327Z,13.48
2023-05-22T21:37:16.827Z,8.82
2023-05-22T21:39:43.282Z,10.77
2023-05-22T21:42:09.935Z,9.63
2023-05-22T21:44:37.421Z,9.35
2023-05-22T21:47:04.026Z,9.80
2023-05-22T21:49:30.594Z,11.88
2023-05-22T21:51:57.131Z,12.93
2023-05-22T21:54:23.621Z,10.15
2023-05-22T21:56:50.108Z,8.98
2023-05-22T21:59:16.609Z,8.93
2023-05-22T22:01:43.326Z,12.27
2023-05-22T22:04:09.888Z,12.65
2023-05-22T22:06:36.852Z,8.48
2023-05-22T22:09:03.585Z,10.18
2023-05-22T22:11:30.151Z,13.20
2023-05-22T22:13:56.806Z,8.82
2023-05-22T22:16:24.354Z,9.02
2023-05-22T22:18:51.321Z,9.57
2023-05-22T22:21:17.907Z,11.48
2023-05-22T22:23:44.327Z,9.30
2023-05-22T22:26:12.134Z,11.50
2023-05-22T22:28:38.629Z,8.35
2023-05-22T22:31:05.133Z,7.85
2023-05-22T22:33:32.754Z,9.00
2023-05-22T22:35:59.602Z,9.98
2023-05-22T22:38:26.833Z,8.38
2023-05-22T22:40:53.317Z,9.50
2023-05-22T22:43:19.774Z,10.40
2023-05-22T22:45:46.508Z,7.70
2023-05-22T22:48:13.055Z,9.90
2023-05-22T22:50:39.823Z,6.18
2023-05-22T22:53:06.486Z,8.50
2023-05-22T22:55:33.255Z,7.63
2023-05-22T22:57:59.762Z,7.93
2023-05-22T23:00:26.217Z,9.88
2023-05-22T23:02:52.750Z,7.93
2023-05-22T23:05:20.534Z,10.20
2023-05-22T23:07:47.783Z,8.68
2023-05-22T23:10:14.956Z,8.23
2023-05-22T23:12:41.792Z,9.55
2023-05-22T23:15:13.219Z,7.43
2023-05-22T23:17:41.277Z,6.53
2023-05-22T23:20:08.946Z,9.30
2023-05-22T23:22:35.613Z,9.02
2023-05-22T23:25:02.284Z,15.40
2023-05-22T23:27:28.818Z,10.50
2023-05-22T23:29:55.326Z,9.75
2023-05-22T23:32:22.242Z,10.38
2023-05-22T23:34:48.795Z,12.80
2023-05-22T23:37:15.680Z,11.45
2023-05-22T23:39:42.123Z,9.73
2023-05-22T23:42:12.106Z,14.38
2023-05-22T23:44:38.576Z,12.85
2023-05-22T23:47:06.579Z,15.88
2023-05-22T23:49:33.329Z,14.35
2023-05-22T23:52:00.007Z,13.18
2023-05-22T23:54:26.502Z,11.48
2023-05-22T23:56:53.665Z,15.07
2023-05-22T23:59:21.521Z,12.68
